Spirit Of Baltimore — WDE9403 — position and weather

sailwx.info

Track history (hours):
 
Tides and Currents Weather Stations Pressure Air Temp Water Temp Dewpoint Dewpoint Depression Visibility Wind Speed Wind Dir Waves Ship Positions

Spirit Of Baltimore

Owner: Spirit Cruises, LLC, Baltimore, MD. More information available from US FCC via Universal Licensing System and Coast Guard Vessel Documentation Center.

Last reported at 2018-Apr-25 22:00 UTC. Time now 2018-Apr-25 22:04 UTC.
Position N 39°17' W 076°37'.

Length 40 m; draft 1.6 m.

Type: Passenger vessel. MMSI: 367416810.

Date/timePositionNaut miles runAvg speedWind from/ knotsBaromVisibWave heightAir tempDewpointWater temp
2018-Apr-25 22:00N 39°17' W 076°37'0 0.0
2018-Apr-25 21:30N 39°17' W 076°37'0 0.0
2018-Apr-25 21:00N 39°17' W 076°37'  
2018-Apr-22 18:20N 39°17' W 076°37'0 0.0
2018-Apr-22 18:00N 39°17' W 076°37'2 4.1
2018-Apr-22 17:31N 39°16' W 076°34'3 5.7
2018-Apr-22 17:01N 39°14' W 076°32'3 6.2
2018-Apr-22 16:31N 39°16' W 076°35'2 3.6
2018-Apr-22 16:00N 39°17' W 076°37'0 0.0
2018-Apr-22 15:30N 39°17' W 076°37'0 0.0
2018-Apr-22 15:01N 39°17' W 076°37'0 0.0
2018-Apr-22 14:30N 39°17' W 076°37'0 0.0
2018-Apr-22 14:00N 39°17' W 076°37'0 0.0
2018-Apr-22 03:32N 39°17' W 076°37'0 0.0
2018-Apr-22 03:31N 39°17' W 076°37'0 0.0
2018-Apr-22 03:00N 39°17' W 076°37'0 0.0
2018-Apr-22 02:31N 39°17' W 076°37'0 0.0
2018-Apr-22 02:01N 39°17' W 076°37'0 0.5
2018-Apr-22 01:30N 39°17' W 076°36'2 3.2
2018-Apr-22 01:00N 39°16' W 076°35'3 6.4
2018-Apr-22 00:31N 39°14' W 076°32'1 1.4
2018-Apr-22 00:01N 39°14' W 076°33'3 5.6
2018-Apr-21 23:30N 39°16' W 076°35'2 2.9
2018-Apr-21 22:58N 39°17' W 076°37'0 0.0
2018-Apr-21 22:28N 39°17' W 076°37'0 0.0
2018-Apr-21 21:58N 39°17' W 076°37'0 0.0
2018-Apr-21 21:28N 39°17' W 076°37'0 0.0
2018-Apr-21 20:58N 39°17' W 076°37'0 0.0
2018-Apr-21 20:28N 39°17' W 076°37'0 0.0
2018-Apr-21 19:58N 39°17' W 076°37'0 0.0
2018-Apr-21 19:28N 39°17' W 076°37'0 0.0
2018-Apr-21 18:58N 39°17' W 076°37'0 0.0
2018-Apr-21 18:29N 39°17' W 076°37'0 0.1
2018-Apr-21 18:00N 39°17' W 076°37'3 5.1
2018-Apr-21 17:30N 39°15' W 076°34'1 2.3
2018-Apr-21 17:00N 39°15' W 076°33'2 4.3
2018-Apr-21 16:30N 39°16' W 076°35'1 2.9
2018-Apr-21 16:00N 39°17' W 076°37'0 0.0
2018-Apr-21 15:30N 39°17' W 076°37'0 0.0
2018-Apr-21 15:00N 39°17' W 076°37'0 0.0
2018-Apr-21 14:30N 39°17' W 076°37'0 0.0
2018-Apr-21 13:59N 39°17' W 076°37'0 0.0
2018-Apr-21 02:42N 39°17' W 076°37'0 0.0
2018-Apr-21 02:31N 39°17' W 076°37'0 0.1
2018-Apr-21 02:01N 39°17' W 076°37'1 1.6
2018-Apr-21 01:30N 39°17' W 076°36'2 3.8
2018-Apr-21 01:00N 39°15' W 076°34'2 4.9
2018-Apr-21 00:31N 39°13' W 076°32'0 0.6
2018-Apr-21 00:01N 39°14' W 076°32'4 7.1
2018-Apr-20 23:30N 39°16' W 076°35'1 0.1
2018-Apr-20 01:43N 39°17' W 076°37'0 0.0
2018-Apr-20 01:30N 39°17' W 076°37'1 1.3
2018-Apr-20 01:01N 39°17' W 076°36'4 7.3
2018-Apr-20 00:30N 39°14' W 076°32'1 1.4
2018-Apr-20 00:00N 39°14' W 076°32'4 7.5
2018-Apr-19 23:30N 39°17' W 076°35'1 0.1
2018-Apr-19 02:10N 39°17' W 076°37'0 0.2
2018-Apr-19 02:00N 39°17' W 076°37'0 0.6
2018-Apr-19 01:30N 39°17' W 076°36'1 2.9
2018-Apr-19 01:00N 39°16' W 076°35'1 2.0
2018-Apr-19 00:30N 39°15' W 076°35'3 5.0
2018-Apr-19 00:00N 39°14' W 076°32'1 1.0
2018-Apr-18 23:30N 39°14' W 076°33'3 6.9
2018-Apr-18 23:01N 39°17' W 076°35'1 1.5
2018-Apr-18 22:28N 39°17' W 076°36'0 0.0
2018-Apr-18 21:52N 39°17' W 076°36'0 0.1
2018-Apr-18 21:28N 39°17' W 076°36'0 0.0
2018-Apr-18 02:10N 39°17' W 076°37'0 0.1
2018-Apr-18 01:58N 39°17' W 076°37'0 0.0
2018-Apr-18 01:28N 39°17' W 076°37'1 1.6
2018-Apr-18 01:00N 39°17' W 076°36'1 2.8
2018-Apr-18 00:30N 39°16' W 076°34'2 3.7
2018-Apr-18 00:00N 39°15' W 076°32'2 4.6
2018-Apr-17 23:30N 39°16' W 076°35'2 3.3
2018-Apr-17 22:58N 39°17' W 076°37'0 0.0
2018-Apr-17 22:28N 39°17' W 076°37'0 0.0
2018-Apr-17 21:58N 39°17' W 076°37'0 0.0
2018-Apr-17 21:28N 39°17' W 076°37'0 0.0
2018-Apr-17 20:58N 39°17' W 076°37'0 0.0
2018-Apr-17 20:28N 39°17' W 076°37'  
Track history (hours):
 
Tides and Currents Weather Stations Pressure Air Temp Water Temp Dewpoint Dewpoint Depression Visibility Wind Speed Wind Dir Waves Ship Positions

Spirit Of Baltimore

Owner: Spirit Cruises, LLC, Baltimore, MD. More information available from US FCC via Universal Licensing System and Coast Guard Vessel Documentation Center.

Last reported at 2018-Apr-25 22:00 UTC. Time now 2018-Apr-25 22:04 UTC.
Position N 39°17' W 076°37'.

Length 40 m; draft 1.6 m.

Type: Passenger vessel. MMSI: 367416810.

Date/timePositionNaut miles runAvg speedWind from/ knotsBaromVisibWave heightAir tempDewpointWater temp
2018-Apr-25 22:00N 39°17' W 076°37'0 0.0
2018-Apr-25 21:30N 39°17' W 076°37'0 0.0
2018-Apr-25 21:00N 39°17' W 076°37'  
2018-Apr-22 18:20N 39°17' W 076°37'0 0.0
2018-Apr-22 18:00N 39°17' W 076°37'2 4.1
2018-Apr-22 17:31N 39°16' W 076°34'3 5.7
2018-Apr-22 17:01N 39°14' W 076°32'3 6.2
2018-Apr-22 16:31N 39°16' W 076°35'2 3.6
2018-Apr-22 16:00N 39°17' W 076°37'0 0.0
2018-Apr-22 15:30N 39°17' W 076°37'0 0.0
2018-Apr-22 15:01N 39°17' W 076°37'0 0.0
2018-Apr-22 14:30N 39°17' W 076°37'0 0.0
2018-Apr-22 14:00N 39°17' W 076°37'0 0.0
2018-Apr-22 03:32N 39°17' W 076°37'0 0.0
2018-Apr-22 03:31N 39°17' W 076°37'0 0.0
2018-Apr-22 03:00N 39°17' W 076°37'0 0.0
2018-Apr-22 02:31N 39°17' W 076°37'0 0.0
2018-Apr-22 02:01N 39°17' W 076°37'0 0.5
2018-Apr-22 01:30N 39°17' W 076°36'2 3.2
2018-Apr-22 01:00N 39°16' W 076°35'3 6.4
2018-Apr-22 00:31N 39°14' W 076°32'1 1.4
2018-Apr-22 00:01N 39°14' W 076°33'3 5.6
2018-Apr-21 23:30N 39°16' W 076°35'2 2.9
2018-Apr-21 22:58N 39°17' W 076°37'0 0.0
2018-Apr-21 22:28N 39°17' W 076°37'0 0.0
2018-Apr-21 21:58N 39°17' W 076°37'0 0.0
2018-Apr-21 21:28N 39°17' W 076°37'0 0.0
2018-Apr-21 20:58N 39°17' W 076°37'0 0.0
2018-Apr-21 20:28N 39°17' W 076°37'0 0.0
2018-Apr-21 19:58N 39°17' W 076°37'0 0.0
2018-Apr-21 19:28N 39°17' W 076°37'0 0.0
2018-Apr-21 18:58N 39°17' W 076°37'0 0.0
2018-Apr-21 18:29N 39°17' W 076°37'0 0.1
2018-Apr-21 18:00N 39°17' W 076°37'3 5.1
2018-Apr-21 17:30N 39°15' W 076°34'1 2.3
2018-Apr-21 17:00N 39°15' W 076°33'2 4.3
2018-Apr-21 16:30N 39°16' W 076°35'1 2.9
2018-Apr-21 16:00N 39°17' W 076°37'0 0.0
2018-Apr-21 15:30N 39°17' W 076°37'0 0.0
2018-Apr-21 15:00N 39°17' W 076°37'0 0.0
2018-Apr-21 14:30N 39°17' W 076°37'0 0.0
2018-Apr-21 13:59N 39°17' W 076°37'0 0.0
2018-Apr-21 02:42N 39°17' W 076°37'0 0.0
2018-Apr-21 02:31N 39°17' W 076°37'0 0.1
2018-Apr-21 02:01N 39°17' W 076°37'1 1.6
2018-Apr-21 01:30N 39°17' W 076°36'2 3.8
2018-Apr-21 01:00N 39°15' W 076°34'2 4.9
2018-Apr-21 00:31N 39°13' W 076°32'0 0.6
2018-Apr-21 00:01N 39°14' W 076°32'4 7.1
2018-Apr-20 23:30N 39°16' W 076°35'1 0.1
2018-Apr-20 01:43N 39°17' W 076°37'0 0.0
2018-Apr-20 01:30N 39°17' W 076°37'1 1.3
2018-Apr-20 01:01N 39°17' W 076°36'4 7.3
2018-Apr-20 00:30N 39°14' W 076°32'1 1.4
2018-Apr-20 00:00N 39°14' W 076°32'4 7.5
2018-Apr-19 23:30N 39°17' W 076°35'1 0.1
2018-Apr-19 02:10N 39°17' W 076°37'0 0.2
2018-Apr-19 02:00N 39°17' W 076°37'0 0.6
2018-Apr-19 01:30N 39°17' W 076°36'1 2.9
2018-Apr-19 01:00N 39°16' W 076°35'1 2.0
2018-Apr-19 00:30N 39°15' W 076°35'3 5.0
2018-Apr-19 00:00N 39°14' W 076°32'1 1.0
2018-Apr-18 23:30N 39°14' W 076°33'3 6.9
2018-Apr-18 23:01N 39°17' W 076°35'1 1.5
2018-Apr-18 22:28N 39°17' W 076°36'0 0.0
2018-Apr-18 21:52N 39°17' W 076°36'0 0.1
2018-Apr-18 21:28N 39°17' W 076°36'0 0.0
2018-Apr-18 02:10N 39°17' W 076°37'0 0.1
2018-Apr-18 01:58N 39°17' W 076°37'0 0.0
2018-Apr-18 01:28N 39°17' W 076°37'1 1.6
2018-Apr-18 01:00N 39°17' W 076°36'1 2.8
2018-Apr-18 00:30N 39°16' W 076°34'2 3.7
2018-Apr-18 00:00N 39°15' W 076°32'2 4.6
2018-Apr-17 23:30N 39°16' W 076°35'2 3.3
2018-Apr-17 22:58N 39°17' W 076°37'0 0.0
2018-Apr-17 22:28N 39°17' W 076°37'0 0.0
2018-Apr-17 21:58N 39°17' W 076°37'0 0.0
2018-Apr-17 21:28N 39°17' W 076°37'0 0.0
2018-Apr-17 20:58N 39°17' W 076°37'0 0.0
2018-Apr-17 20:28N 39°17' W 076°37'  

Dump ship's entire track history